createdAt,value
2022-11-21T00:01:29.063Z,0.50
2022-11-21T00:03:31.834Z,0.70
2022-11-21T00:05:34.584Z,0.60
2022-11-21T00:07:38.679Z,1.10
2022-11-21T00:09:41.386Z,2.05
2022-11-21T00:11:44.081Z,1.83
2022-11-21T00:13:46.866Z,1.30
2022-11-21T00:15:49.552Z,1.08
2022-11-21T00:17:53.336Z,0.70
2022-11-21T00:19:56.059Z,0.65
2022-11-21T00:21:58.755Z,0.50
2022-11-21T00:24:02.924Z,0.35
2022-11-21T00:26:07.141Z,0.25
2022-11-21T00:28:09.865Z,0.43
2022-11-21T00:30:13.586Z,0.40
2022-11-21T00:32:16.287Z,0.28
2022-11-21T00:34:19.017Z,0.22
2022-11-21T00:36:21.660Z,0.40
2022-11-21T00:38:25.236Z,0.30
2022-11-21T00:40:29.303Z,0.22
2022-11-21T00:42:32.025Z,0.40
2022-11-21T00:44:34.728Z,0.20
2022-11-21T00:46:37.401Z,0.13
2022-11-21T00:48:40.138Z,0.40
2022-11-21T00:50:42.839Z,0.20
2022-11-21T00:52:45.588Z,0.20
2022-11-21T00:54:48.290Z,0.30
2022-11-21T00:56:52.351Z,0.20
2022-11-21T00:58:55.037Z,0.20
2022-11-21T01:01:05.753Z,0.25
2022-11-21T01:03:08.526Z,0.20
2022-11-21T01:05:11.318Z,0.45
2022-11-21T01:07:14.183Z,0.30
2022-11-21T01:09:17.036Z,0.47
2022-11-21T01:11:21.956Z,0.17
2022-11-21T01:13:26.112Z,0.40
2022-11-21T01:15:28.835Z,0.43
2022-11-21T01:17:33.500Z,0.40
2022-11-21T01:19:36.148Z,0.60
2022-11-21T01:21:38.878Z,0.65
2022-11-21T01:23:41.834Z,0.45
2022-11-21T01:25:44.487Z,0.63
2022-11-21T01:27:47.132Z,0.43
2022-11-21T01:29:52.571Z,0.40
2022-11-21T01:31:55.298Z,0.40
2022-11-21T01:33:59.873Z,0.30
2022-11-21T01:36:10.634Z,0.57
2022-11-21T01:38:13.378Z,0.50
2022-11-21T01:40:17.000Z,0.63
2022-11-21T01:42:19.686Z,0.65
2022-11-21T01:44:24.514Z,0.95
2022-11-21T01:46:28.634Z,0.60
2022-11-21T01:48:36.603Z,0.60
2022-11-21T01:50:39.387Z,0.40
2022-11-21T01:52:42.268Z,0.60
2022-11-21T01:54:48.456Z,0.63
2022-11-21T01:56:57.651Z,0.57
2022-11-21T01:59:03.504Z,0.55
2022-11-21T02:01:06.844Z,0.80
2022-11-21T02:03:16.646Z,0.80
2022-11-21T02:05:24.499Z,0.70
2022-11-21T02:07:29.307Z,0.60
2022-11-21T02:09:34.260Z,1.10
2022-11-21T02:11:41.726Z,0.93
2022-11-21T02:13:44.566Z,0.65
2022-11-21T02:15:47.420Z,0.45
2022-11-21T02:17:50.254Z,0.82
2022-11-21T02:19:57.291Z,0.65
2022-11-21T02:22:07.056Z,0.57
2022-11-21T02:24:17.116Z,0.52
2022-11-21T02:26:21.259Z,0.68
2022-11-21T02:28:26.672Z,0.57
2022-11-21T02:30:30.490Z,0.68
2022-11-21T02:32:36.297Z,0.60
2022-11-21T02:34:39.005Z,0.70
2022-11-21T02:36:45.113Z,0.73
2022-11-21T02:38:47.797Z,0.40
2022-11-21T02:40:56.106Z,0.70
2022-11-21T02:43:07.392Z,0.73
2022-11-21T02:45:16.898Z,0.88
2022-11-21T02:47:20.795Z,0.60
2022-11-21T02:49:32.059Z,0.70
2022-11-21T02:51:34.765Z,0.70
2022-11-21T02:53:37.445Z,0.60
2022-11-21T02:55:40.427Z,0.60
2022-11-21T02:57:43.768Z,0.68
2022-11-21T02:59:47.825Z,0.60
2022-11-21T03:01:50.660Z,0.55
2022-11-21T03:03:53.431Z,0.45
2022-11-21T03:05:56.486Z,0.68
2022-11-21T03:07:59.394Z,1.13
2022-11-21T03:10:02.103Z,0.50
2022-11-21T03:12:07.485Z,0.43
2022-11-21T03:14:10.368Z,0.57
2022-11-21T03:16:14.515Z,0.73
2022-11-21T03:18:17.241Z,0.45
2022-11-21T03:20:19.987Z,0.40
2022-11-21T03:22:22.663Z,0.50
2022-11-21T03:24:25.601Z,0.40
2022-11-21T03:26:28.578Z,0.50
2022-11-21T03:28:31.274Z,0.20
2022-11-21T03:30:33.948Z,0.30
2022-11-21T03:32:38.099Z,0.38
2022-11-21T03:34:40.780Z,0.50
2022-11-21T03:36:43.442Z,0.40
2022-11-21T03:38:46.103Z,0.60
2022-11-21T03:40:48.928Z,0.50
2022-11-21T03:42:51.719Z,0.70
2022-11-21T03:44:54.406Z,0.40
2022-11-21T03:46:57.255Z,0.38
2022-11-21T03:49:01.736Z,0.30
2022-11-21T03:51:04.597Z,0.55
2022-11-21T03:53:07.349Z,0.57
2022-11-21T03:55:10.711Z,0.70
2022-11-21T03:57:13.449Z,0.30
2022-11-21T03:59:16.237Z,0.50
2022-11-21T04:01:19.645Z,0.40
2022-11-21T04:03:22.727Z,0.20
2022-11-21T04:05:27.112Z,0.45
2022-11-21T04:07:30.547Z,0.43
2022-11-21T04:09:33.559Z,0.50
2022-11-21T04:11:36.326Z,0.40
2022-11-21T04:13:39.370Z,0.60
2022-11-21T04:15:42.456Z,0.45
2022-11-21T04:17:45.136Z,0.55
2022-11-21T04:19:47.798Z,0.63
2022-11-21T04:21:51.841Z,0.25
2022-11-21T04:23:54.547Z,0.43
2022-11-21T04:25:57.296Z,0.60
2022-11-21T04:28:00.759Z,0.50
2022-11-21T04:30:03.765Z,0.65
2022-11-21T04:32:06.437Z,0.32
2022-11-21T04:34:09.154Z,0.50
2022-11-21T04:36:11.857Z,0.52
2022-11-21T04:38:16.126Z,0.60
2022-11-21T04:40:19.130Z,0.77
2022-11-21T04:42:21.824Z,0.55
2022-11-21T04:44:24.536Z,0.80
2022-11-21T04:46:27.166Z,0.40
2022-11-21T04:48:29.916Z,0.75
2022-11-21T04:50:32.567Z,0.75
2022-11-21T04:52:35.680Z,0.60
2022-11-21T04:54:39.871Z,0.90
2022-11-21T04:56:42.531Z,1.20
2022-11-21T04:58:45.419Z,0.90
2022-11-21T05:00:48.187Z,0.63
2022-11-21T05:02:50.893Z,0.68
2022-11-21T05:04:53.542Z,0.80
2022-11-21T05:06:56.296Z,0.68
2022-11-21T05:08:59.009Z,0.80
2022-11-21T05:11:20.326Z,0.88
2022-11-21T05:13:23.031Z,1.05
2022-11-21T05:15:25.708Z,0.75
2022-11-21T05:17:29.774Z,0.73
2022-11-21T05:19:32.468Z,0.88
2022-11-21T05:21:35.157Z,1.15
2022-11-21T05:23:37.962Z,0.70
2022-11-21T05:25:40.705Z,0.93
2022-11-21T05:27:44.789Z,0.70
2022-11-21T05:29:47.467Z,0.80
2022-11-21T05:31:50.187Z,1.00
2022-11-21T05:33:52.899Z,0.90
2022-11-21T05:35:55.623Z,0.90
2022-11-21T05:37:58.746Z,0.60
2022-11-21T05:40:01.426Z,1.10
2022-11-21T05:42:04.237Z,0.70
2022-11-21T05:44:07.453Z,0.90
2022-11-21T05:46:10.235Z,1.08
2022-11-21T05:48:13.055Z,0.80
2022-11-21T05:50:15.772Z,0.85
2022-11-21T05:52:18.505Z,0.88
2022-11-21T05:54:21.260Z,0.88
2022-11-21T05:56:24.015Z,0.80
2022-11-21T05:58:26.677Z,1.20
2022-11-21T06:00:31.111Z,1.00
2022-11-21T06:02:50.467Z,0.90
2022-11-21T06:04:53.236Z,0.90
2022-11-21T06:06:55.917Z,1.00
2022-11-21T06:08:58.603Z,0.80
2022-11-21T06:11:01.344Z,0.90
2022-11-21T06:13:21.934Z,1.27
2022-11-21T06:15:24.756Z,0.63
2022-11-21T06:17:28.826Z,0.95
2022-11-21T06:19:31.614Z,1.02
2022-11-21T06:21:37.312Z,1.10
2022-11-21T06:23:40.049Z,0.90
2022-11-21T06:25:43.325Z,0.70
2022-11-21T06:27:46.062Z,1.10
2022-11-21T06:29:48.752Z,0.55
2022-11-21T06:31:51.762Z,0.57
2022-11-21T06:33:57.486Z,0.80
2022-11-21T06:36:02.961Z,0.60
2022-11-21T06:38:05.622Z,0.70
2022-11-21T06:40:09.370Z,0.80
2022-11-21T06:42:12.088Z,0.70
2022-11-21T06:44:15.199Z,0.75
2022-11-21T06:46:18.709Z,0.70
2022-11-21T06:48:21.367Z,0.73
2022-11-21T06:50:25.427Z,0.73
2022-11-21T06:52:28.324Z,1.10
2022-11-21T06:54:31.400Z,0.80
2022-11-21T06:56:34.393Z,0.80
2022-11-21T06:58:37.649Z,0.80
2022-11-21T07:00:40.419Z,0.80
2022-11-21T07:02:43.369Z,0.55
2022-11-21T07:04:46.098Z,0.70
2022-11-21T07:06:50.228Z,0.60
2022-11-21T07:11:25.479Z,0.70
2022-11-21T07:13:28.546Z,0.95
2022-11-21T07:15:31.302Z,0.88
2022-11-21T07:17:34.004Z,1.00
2022-11-21T07:19:40.705Z,0.80
2022-11-21T07:21:44.116Z,0.80
2022-11-21T07:23:48.629Z,0.90
2022-11-21T07:25:51.394Z,1.00
2022-11-21T07:27:54.124Z,1.00
2022-11-21T07:29:58.615Z,1.35
2022-11-21T07:32:01.303Z,0.95
2022-11-21T07:34:03.991Z,0.88
2022-11-21T07:36:07.214Z,1.20
2022-11-21T07:38:10.522Z,0.90
2022-11-21T07:40:15.129Z,0.85
2022-11-21T07:42:17.836Z,0.95
2022-11-21T07:44:20.587Z,1.05
2022-11-21T07:46:23.322Z,0.95
2022-11-21T07:48:26.050Z,0.90
2022-11-21T07:50:29.676Z,1.20
2022-11-21T07:52:32.422Z,0.93
2022-11-21T07:54:35.102Z,1.13
2022-11-21T07:56:39.219Z,1.02
2022-11-21T07:58:41.904Z,0.85
2022-11-21T08:00:44.629Z,1.00
2022-11-21T08:02:47.365Z,1.08
2022-11-21T08:04:50.379Z,1.00
2022-11-21T08:06:53.211Z,1.33
2022-11-21T08:08:56.189Z,1.42
2022-11-21T08:10:58.961Z,1.40
2022-11-21T08:13:03.014Z,1.27
2022-11-21T08:15:06.952Z,1.30
2022-11-21T08:17:09.797Z,1.20
2022-11-21T08:19:12.547Z,0.95
2022-11-21T08:21:19.647Z,1.63
2022-11-21T08:23:22.820Z,1.05
2022-11-21T08:25:25.539Z,1.00
2022-11-21T08:27:29.811Z,1.27
2022-11-21T08:29:33.939Z,1.10
2022-11-21T08:31:37.590Z,0.93
2022-11-21T08:33:40.254Z,1.15
2022-11-21T08:35:43.323Z,1.00
2022-11-21T08:37:46.033Z,1.42
2022-11-21T08:39:48.684Z,0.88
2022-11-21T08:42:06.464Z,1.10
2022-11-21T08:44:13.801Z,1.08
2022-11-21T08:46:18.680Z,0.98
2022-11-21T08:48:21.425Z,1.00
2022-11-21T08:50:25.560Z,0.80
2022-11-21T08:52:28.296Z,1.45
2022-11-21T08:54:31.176Z,1.45
2022-11-21T08:56:33.889Z,1.00
2022-11-21T08:58:36.551Z,1.40
2022-11-21T09:00:39.245Z,0.88
2022-11-21T09:02:43.826Z,1.00
2022-11-21T09:04:47.033Z,1.17
2022-11-21T09:06:49.733Z,1.00
2022-11-21T09:08:52.987Z,0.90
2022-11-21T09:10:55.744Z,0.88
2022-11-21T09:12:58.868Z,0.93
2022-11-21T09:15:19.139Z,0.82
2022-11-21T09:17:39.544Z,1.10
2022-11-21T09:19:43.634Z,0.90
2022-11-21T09:21:46.306Z,1.00
2022-11-21T09:23:49.134Z,0.90
2022-11-21T09:25:51.880Z,1.33
2022-11-21T09:27:54.638Z,1.25
2022-11-21T09:29:57.401Z,1.17
2022-11-21T09:32:00.137Z,1.10
2022-11-21T09:34:02.869Z,0.90
2022-11-21T09:36:07.102Z,1.13
2022-11-21T09:38:10.340Z,1.05
2022-11-21T09:40:16.337Z,0.90
2022-11-21T09:42:57.519Z,1.05
2022-11-21T09:45:07.368Z,0.80
2022-11-21T09:47:21.240Z,0.90
2022-11-21T09:49:26.840Z,0.80
2022-11-21T09:51:32.747Z,1.05
2022-11-21T09:53:40.637Z,2.00
2022-11-21T09:55:47.287Z,1.00
2022-11-21T09:59:54.145Z,1.02
2022-11-21T10:01:57.571Z,1.52
2022-11-21T10:04:03.487Z,1.10
2022-11-21T10:06:18.518Z,0.90
2022-11-21T10:08:35.208Z,1.10
2022-11-21T10:10:54.351Z,1.63
2022-11-21T10:13:17.219Z,0.88
2022-11-21T10:15:39.811Z,1.00
2022-11-21T10:17:57.846Z,0.73
2022-11-21T10:20:28.424Z,1.02
2022-11-21T10:22:54.585Z,1.02
2022-11-21T10:25:07.580Z,0.80
2022-11-21T10:27:16.561Z,1.23
2022-11-21T10:29:22.988Z,0.80
2022-11-21T10:31:30.657Z,1.13
2022-11-21T10:33:36.331Z,1.15
2022-11-21T10:35:42.646Z,1.00
2022-11-21T10:37:50.603Z,0.85
2022-11-21T10:39:55.640Z,1.20
2022-11-21T10:42:05.276Z,0.90
2022-11-21T10:44:35.562Z,1.10
2022-11-21T10:46:38.222Z,1.20
2022-11-21T10:48:41.023Z,1.42
2022-11-21T10:51:00.052Z,1.00
2022-11-21T10:53:24.117Z,1.08
2022-11-21T10:55:26.877Z,0.80
2022-11-21T10:57:34.231Z,1.55
2022-11-21T10:59:37.091Z,1.00
2022-11-21T11:01:40.071Z,0.75
2022-11-21T11:03:45.608Z,0.82
2022-11-21T11:05:59.186Z,0.80
2022-11-21T11:08:04.689Z,0.98
2022-11-21T11:10:17.341Z,0.68
2022-11-21T11:12:49.855Z,0.90
2022-11-21T11:14:56.523Z,0.90
2022-11-21T11:16:59.826Z,0.40
2022-11-21T11:19:08.550Z,1.00
2022-11-21T11:21:19.174Z,0.85
2022-11-21T11:23:28.197Z,1.35
2022-11-21T11:25:36.836Z,0.77
2022-11-21T11:27:39.524Z,1.55
2022-11-21T11:29:51.638Z,0.95
2022-11-21T11:32:00.663Z,1.00
2022-11-21T11:34:03.676Z,1.20
2022-11-21T11:36:15.255Z,0.82
2022-11-21T11:38:20.001Z,0.82
2022-11-21T11:40:29.641Z,0.80
2022-11-21T11:43:21.317Z,0.82
2022-11-21T11:46:05.492Z,0.75
2022-11-21T11:48:11.138Z,0.70
2022-11-21T11:50:19.277Z,0.68
2022-11-21T11:52:26.359Z,0.80
2022-11-21T11:54:36.082Z,0.90
2022-11-21T11:56:39.512Z,1.00
2022-11-21T11:58:46.927Z,0.90
2022-11-21T12:00:55.074Z,0.77
2022-11-21T12:03:02.516Z,1.00
2022-11-21T12:05:12.466Z,0.80
2022-11-21T12:09:50.846Z,1.10
2022-11-21T12:12:07.535Z,0.80
2022-11-21T12:14:39.321Z,0.80
2022-11-21T12:16:42.186Z,1.13
2022-11-21T12:18:56.268Z,0.80
2022-11-21T12:21:06.213Z,0.70
2022-11-21T12:23:11.597Z,1.13
2022-11-21T12:25:15.317Z,1.00
2022-11-21T12:27:25.421Z,1.20
2022-11-21T12:29:47.308Z,1.10
2022-11-21T12:32:09.957Z,0.77
2022-11-21T12:34:26.017Z,1.05
2022-11-21T12:36:36.166Z,0.90
2022-11-21T12:39:14.434Z,0.75
2022-11-21T12:41:46.018Z,0.70
2022-11-21T12:43:57.738Z,1.00
2022-11-21T12:46:11.638Z,0.90
2022-11-21T12:48:39.640Z,0.90
2022-11-21T12:51:10.437Z,0.85
2022-11-21T12:53:41.720Z,0.90
2022-11-21T12:55:44.485Z,0.80
2022-11-21T12:58:08.459Z,0.70
2022-11-21T13:00:18.119Z,1.05
2022-11-21T13:02:31.039Z,0.70
2022-11-21T13:04:37.563Z,0.80
2022-11-21T13:06:42.915Z,0.80
2022-11-21T13:08:49.544Z,0.85
2022-11-21T13:13:30.373Z,1.40
2022-11-21T13:15:40.941Z,1.35
2022-11-21T13:17:50.604Z,1.05
2022-11-21T13:19:58.306Z,0.88
2022-11-21T13:22:01.039Z,0.52
2022-11-21T13:24:05.544Z,0.90
2022-11-21T13:26:48.792Z,0.95
2022-11-21T13:28:53.356Z,0.80
2022-11-21T13:30:57.389Z,1.00
2022-11-21T13:33:00.273Z,0.70
2022-11-21T13:35:02.983Z,0.80
2022-11-21T13:37:06.711Z,1.00
2022-11-21T13:39:38.395Z,1.10
2022-11-21T13:42:20.465Z,0.80
2022-11-21T13:44:40.627Z,0.93
2022-11-21T13:46:59.884Z,0.82
2022-11-21T13:49:09.382Z,0.93
2022-11-21T13:51:31.343Z,0.80
2022-11-21T13:54:18.096Z,0.85
2022-11-21T13:56:36.215Z,0.90
2022-11-21T13:58:54.636Z,0.82
2022-11-21T14:01:25.917Z,0.93
2022-11-21T14:03:56.528Z,1.00
2022-11-21T14:06:32.808Z,0.90
2022-11-21T14:08:36.456Z,0.88
2022-11-21T14:10:39.302Z,0.90
2022-11-21T14:12:44.998Z,1.17
2022-11-21T14:14:52.377Z,1.60
2022-11-21T14:17:06.065Z,1.00
2022-11-21T14:19:14.775Z,1.00
2022-11-21T14:21:22.634Z,1.13
2022-11-21T14:23:27.387Z,1.10
2022-11-21T14:25:37.563Z,0.93
2022-11-21T14:27:45.468Z,0.85
2022-11-21T14:29:49.880Z,1.05
2022-11-21T14:31:52.624Z,1.30
2022-11-21T14:33:58.226Z,0.88
2022-11-21T14:36:04.277Z,1.25
2022-11-21T14:38:07.276Z,1.35
2022-11-21T14:40:15.088Z,1.00
2022-11-21T14:42:18.121Z,1.33
2022-11-21T14:44:22.997Z,1.35
2022-11-21T14:46:29.141Z,1.63
2022-11-21T14:48:32.245Z,1.88
2022-11-21T14:50:36.253Z,1.65
2022-11-21T14:52:38.998Z,1.35
2022-11-21T14:55:14.954Z,1.40
2022-11-21T14:57:19.093Z,1.27
2022-11-21T14:59:25.777Z,1.10
2022-11-21T15:01:31.553Z,1.40
2022-11-21T15:03:34.977Z,1.02
2022-11-21T15:06:01.277Z,1.27
2022-11-21T15:08:24.333Z,1.00
2022-11-21T15:10:29.835Z,1.33
2022-11-21T15:12:41.540Z,1.20
2022-11-21T15:14:50.607Z,1.20
2022-11-21T15:16:58.230Z,1.23
2022-11-21T15:19:01.087Z,1.20
2022-11-21T15:21:05.282Z,1.10
2022-11-21T15:23:27.401Z,0.90
2022-11-21T15:25:32.089Z,1.00
2022-11-21T15:27:36.247Z,1.30
2022-11-21T15:29:38.924Z,1.20
2022-11-21T15:31:43.826Z,1.38
2022-11-21T15:36:21.962Z,1.50
2022-11-21T15:38:32.180Z,1.40
2022-11-21T15:40:34.887Z,1.48
2022-11-21T15:42:38.912Z,1.30
2022-11-21T15:44:58.621Z,1.80
2022-11-21T15:47:01.313Z,1.92
2022-11-21T15:49:31.408Z,1.65
2022-11-21T15:52:05.529Z,1.52
2022-11-21T15:53:57.561Z,1.92
2022-11-21T15:56:00.256Z,1.67
2022-11-21T15:58:03.052Z,1.50
2022-11-21T16:00:08.364Z,1.55
2022-11-21T16:02:14.422Z,1.75
2022-11-21T16:04:23.872Z,1.77
2022-11-21T16:06:29.112Z,1.60
2022-11-21T16:08:31.874Z,2.58
2022-11-21T16:10:36.053Z,1.85
2022-11-21T16:12:38.759Z,2.10
2022-11-21T16:14:41.462Z,2.00
2022-11-21T16:16:45.311Z,1.90
2022-11-21T16:18:48.281Z,1.95
2022-11-21T16:20:52.375Z,2.17
2022-11-21T16:22:55.321Z,2.55
2022-11-21T16:24:58.172Z,2.10
2022-11-21T16:27:02.419Z,1.85
2022-11-21T16:29:05.784Z,1.92
2022-11-21T16:31:08.853Z,1.80
2022-11-21T16:33:11.551Z,1.88
2022-11-21T16:35:14.411Z,1.90
2022-11-21T16:37:18.524Z,2.28
2022-11-21T16:39:21.345Z,1.95
2022-11-21T16:41:25.566Z,2.00
2022-11-21T16:43:29.851Z,1.73
2022-11-21T16:45:33.712Z,1.90
2022-11-21T16:47:37.538Z,1.92
2022-11-21T16:49:43.039Z,3.45
2022-11-21T16:51:46.217Z,2.80
2022-11-21T16:53:51.095Z,1.98
2022-11-21T16:56:01.169Z,2.30
2022-11-21T16:58:03.924Z,2.42
2022-11-21T17:00:08.078Z,2.15
2022-11-21T17:02:10.998Z,2.10
2022-11-21T17:04:17.202Z,1.90
2022-11-21T17:06:22.855Z,2.00
2022-11-21T17:08:26.043Z,1.77
2022-11-21T17:10:34.007Z,2.30
2022-11-21T17:12:38.826Z,2.78
2022-11-21T17:14:41.600Z,1.85
2022-11-21T17:16:45.743Z,2.55
2022-11-21T17:18:49.213Z,1.95
2022-11-21T17:20:51.874Z,2.33
2022-11-21T17:22:54.604Z,2.10
2022-11-21T17:24:57.285Z,2.38
2022-11-21T17:27:02.584Z,2.45
2022-11-21T17:29:05.516Z,2.35
2022-11-21T17:31:09.245Z,2.38
2022-11-21T17:33:11.953Z,2.55
2022-11-21T17:35:14.874Z,2.17
2022-11-21T17:37:17.622Z,2.35
2022-11-21T17:39:23.061Z,2.55
2022-11-21T17:41:28.497Z,2.25
2022-11-21T17:43:33.231Z,2.55
2022-11-21T17:45:36.304Z,2.22
2022-11-21T17:47:40.251Z,2.05
2022-11-21T17:49:43.168Z,1.90
2022-11-21T17:51:46.348Z,2.47
2022-11-21T17:53:50.706Z,2.40
2022-11-21T17:55:59.721Z,2.90
2022-11-21T17:58:02.695Z,2.42
2022-11-21T18:00:08.386Z,2.33
2022-11-21T18:02:11.227Z,2.03
2022-11-21T18:04:17.410Z,1.90
2022-11-21T18:06:20.235Z,1.85
2022-11-21T18:08:22.981Z,2.20
2022-11-21T18:10:43.011Z,2.70
2022-11-21T18:12:46.612Z,2.15
2022-11-21T18:14:49.435Z,2.05
2022-11-21T18:16:54.847Z,2.60
2022-11-21T18:18:57.715Z,2.28
2022-11-21T18:21:03.930Z,2.28
2022-11-21T18:23:06.664Z,2.50
2022-11-21T18:25:10.166Z,2.42
2022-11-21T18:27:12.887Z,2.38
2022-11-21T18:31:38.864Z,2.55
2022-11-21T18:33:43.743Z,2.70
2022-11-21T18:35:47.098Z,2.47
2022-11-21T18:37:49.913Z,2.78
2022-11-21T18:39:52.756Z,2.70
2022-11-21T18:41:55.685Z,2.53
2022-11-21T18:44:00.074Z,2.67
2022-11-21T18:46:04.524Z,2.67
2022-11-21T18:48:07.286Z,3.15
2022-11-21T18:50:11.685Z,2.63
2022-11-21T18:52:14.470Z,2.78
2022-11-21T18:54:17.279Z,2.83
2022-11-21T18:56:20.878Z,3.00
2022-11-21T18:58:23.808Z,2.75
2022-11-21T19:00:26.488Z,2.55
2022-11-21T19:02:29.248Z,2.95
2022-11-21T19:04:31.982Z,3.05
2022-11-21T19:06:36.653Z,2.50
2022-11-21T19:08:40.231Z,2.58
2022-11-21T19:10:43.804Z,2.63
2022-11-21T19:12:46.626Z,2.72
2022-11-21T19:14:51.918Z,2.97
2022-11-21T19:16:54.645Z,3.03
2022-11-21T19:19:32.592Z,2.83
2022-11-21T19:21:20.556Z,2.78
2022-11-21T19:23:24.645Z,2.85
2022-11-21T19:25:27.409Z,2.78
2022-11-21T19:27:30.191Z,2.95
2022-11-21T19:29:33.231Z,2.95
2022-11-21T19:31:41.086Z,2.55
2022-11-21T19:33:47.437Z,2.80
2022-11-21T19:35:50.360Z,2.38
2022-11-21T19:37:53.714Z,2.28
2022-11-21T19:39:58.034Z,2.40
2022-11-21T19:42:00.980Z,2.50
2022-11-21T19:44:04.497Z,2.30
2022-11-21T19:46:07.891Z,2.13
2022-11-21T19:48:10.809Z,2.22
2022-11-21T19:50:13.617Z,2.70
2022-11-21T19:52:16.551Z,2.03
2022-11-21T19:54:19.410Z,2.33
2022-11-21T19:56:25.876Z,2.63
2022-11-21T19:58:28.631Z,2.85
2022-11-21T20:00:31.455Z,2.22
2022-11-21T20:02:34.269Z,2.30
2022-11-21T20:04:37.207Z,2.35
2022-11-21T20:06:42.344Z,2.45
2022-11-21T20:08:46.024Z,2.38
2022-11-21T20:10:48.732Z,2.70
2022-11-21T20:12:52.828Z,2.60
2022-11-21T20:14:56.467Z,3.28
2022-11-21T20:16:59.145Z,2.80
2022-11-21T20:19:03.430Z,2.88
2022-11-21T20:21:10.045Z,3.13
2022-11-21T20:23:12.846Z,2.92
2022-11-21T20:25:15.580Z,5.10
2022-11-21T20:27:18.328Z,3.95
2022-11-21T20:29:22.528Z,5.25
2022-11-21T20:31:28.078Z,4.03
2022-11-21T20:33:30.771Z,9.15
2022-11-21T20:35:33.534Z,8.15
2022-11-21T20:37:36.302Z,4.68
2022-11-21T20:39:39.077Z,4.35
2022-11-21T20:41:42.541Z,8.07
2022-11-21T20:44:27.366Z,4.00
2022-11-21T20:46:14.078Z,3.72
2022-11-21T20:48:20.546Z,3.70
2022-11-21T20:51:03.500Z,3.63
2022-11-21T20:55:09.990Z,3.50
2022-11-21T20:57:15.099Z,3.88
2022-11-21T20:59:18.546Z,3.00
2022-11-21T21:01:24.122Z,2.92
2022-11-21T21:03:28.873Z,2.25
2022-11-21T21:05:31.756Z,3.03
2022-11-21T21:07:34.477Z,2.65
2022-11-21T21:09:37.369Z,3.17
2022-11-21T21:11:55.405Z,3.05
2022-11-21T21:13:58.208Z,3.05
2022-11-21T21:16:07.797Z,3.72
2022-11-21T21:18:12.519Z,2.78
2022-11-21T21:20:15.315Z,3.78
2022-11-21T21:22:18.053Z,2.80
2022-11-21T21:24:20.784Z,3.53
2022-11-21T21:26:25.749Z,3.22
2022-11-21T21:28:28.428Z,3.28
2022-11-21T21:30:31.391Z,3.20
2022-11-21T21:32:34.134Z,3.03
2022-11-21T21:34:38.660Z,3.17
2022-11-21T21:36:41.340Z,2.92
2022-11-21T21:38:44.694Z,3.03
2022-11-21T21:40:47.561Z,3.53
2022-11-21T21:42:50.314Z,4.88
2022-11-21T21:44:53.082Z,4.10
2022-11-21T21:46:55.761Z,2.90
2022-11-21T21:48:59.117Z,3.53
2022-11-21T21:51:04.511Z,5.35
2022-11-21T21:53:07.210Z,4.10
2022-11-21T21:55:10.283Z,3.28
2022-11-21T21:57:13.032Z,2.95
2022-11-21T21:59:17.856Z,2.97
2022-11-21T22:01:22.981Z,2.70
2022-11-21T22:03:25.833Z,2.67
2022-11-21T22:05:28.668Z,3.05
2022-11-21T22:07:33.260Z,2.65
2022-11-21T22:09:36.631Z,2.50
2022-11-21T22:11:40.008Z,2.50
2022-11-21T22:13:44.736Z,2.60
2022-11-21T22:15:47.604Z,2.72
2022-11-21T22:17:50.811Z,2.80
2022-11-21T22:19:53.501Z,2.65
2022-11-21T22:21:56.194Z,2.85
2022-11-21T22:26:24.316Z,2.83
2022-11-21T22:28:29.606Z,2.85
2022-11-21T22:30:32.300Z,2.50
2022-11-21T22:32:35.054Z,2.33
2022-11-21T22:34:37.772Z,2.53
2022-11-21T22:36:41.412Z,1.85
2022-11-21T22:38:44.649Z,2.63
2022-11-21T22:40:48.683Z,2.03
2022-11-21T22:42:52.588Z,2.70
2022-11-21T22:44:55.291Z,1.85
2022-11-21T22:46:58.027Z,2.40
2022-11-21T22:49:00.714Z,2.85
2022-11-21T22:51:03.473Z,2.20
2022-11-21T22:53:06.374Z,1.85
2022-11-21T22:55:09.911Z,2.08
2022-11-21T22:57:14.069Z,2.95
2022-11-21T22:59:17.298Z,2.20
2022-11-21T23:01:22.192Z,1.83
2022-11-21T23:03:25.059Z,2.25
2022-11-21T23:05:27.974Z,2.60
2022-11-21T23:07:31.805Z,2.10
2022-11-21T23:09:34.858Z,1.83
2022-11-21T23:11:41.008Z,1.95
2022-11-21T23:13:47.091Z,1.88
2022-11-21T23:15:49.827Z,1.75
2022-11-21T23:17:52.803Z,2.10
2022-11-21T23:19:55.557Z,2.10
2022-11-21T23:21:58.372Z,2.40
2022-11-21T23:24:01.124Z,2.45
2022-11-21T23:26:04.066Z,2.00
2022-11-21T23:28:06.767Z,2.10
2022-11-21T23:30:11.815Z,2.20
2022-11-21T23:32:15.544Z,2.47
2022-11-21T23:34:18.269Z,2.25
2022-11-21T23:36:21.020Z,2.10
2022-11-21T23:38:24.127Z,2.05
2022-11-21T23:40:26.837Z,2.20
2022-11-21T23:42:29.620Z,2.63
2022-11-21T23:44:32.290Z,2.65
2022-11-21T23:46:36.365Z,1.55
2022-11-21T23:48:39.157Z,2.10
2022-11-21T23:50:41.883Z,1.90
2022-11-21T23:52:44.513Z,2.08
2022-11-21T23:54:47.244Z,2.35
2022-11-21T23:56:50.276Z,1.90
2022-11-21T23:58:52.969Z,2.30
